sensor_id;sensor_type;location;lat;lon;timestamp;temperature;humidity
52495;DHT22;38405;53.212;5.660;2023-04-06T00:00:52;2.10;99.90
52495;DHT22;38405;53.212;5.660;2023-04-06T00:03:18;2.10;99.90
52495;DHT22;38405;53.212;5.660;2023-04-06T00:05:44;2.10;99.90
52495;DHT22;38405;53.212;5.660;2023-04-06T00:08:10;2.10;99.90
52495;DHT22;38405;53.212;5.660;2023-04-06T00:10:36;2.10;99.90
52495;DHT22;38405;53.212;5.660;2023-04-06T00:13:01;2.90;99.90
52495;DHT22;38405;53.212;5.660;2023-04-06T00:15:27;2.00;99.90
52495;DHT22;38405;53.212;5.660;2023-04-06T00:17:53;2.00;99.90
52495;DHT22;38405;53.212;5.660;2023-04-06T00:20:18;2.00;99.90
52495;DHT22;38405;53.212;5.660;2023-04-06T00:22:45;1.90;99.90
52495;DHT22;38405;53.212;5.660;2023-04-06T00:25:11;1.80;99.90
52495;DHT22;38405;53.212;5.660;2023-04-06T00:27:37;1.70;99.90
52495;DHT22;38405;53.212;5.660;2023-04-06T00:30:04;1.60;99.90
52495;DHT22;38405;53.212;5.660;2023-04-06T00:32:30;1.50;99.90
52495;DHT22;38405;53.212;5.660;2023-04-06T00:34:56;1.40;99.90
52495;DHT22;38405;53.212;5.660;2023-04-06T00:37:21;1.30;99.90
52495;DHT22;38405;53.212;5.660;2023-04-06T00:39:47;1.20;99.90
52495;DHT22;38405;53.212;5.660;2023-04-06T00:42:13;1.10;99.90
52495;DHT22;38405;53.212;5.660;2023-04-06T00:44:40;1.10;99.90
52495;DHT22;38405;53.212;5.660;2023-04-06T00:47:06;1.10;99.90
52495;DHT22;38405;53.212;5.660;2023-04-06T00:49:33;1.20;99.90
52495;DHT22;38405;53.212;5.660;2023-04-06T00:51:59;1.20;99.90
52495;DHT22;38405;53.212;5.660;2023-04-06T00:54:25;1.40;99.90
52495;DHT22;38405;53.212;5.660;2023-04-06T00:56:51;1.30;99.90
52495;DHT22;38405;53.212;5.660;2023-04-06T00:59:17;1.30;99.90
52495;DHT22;38405;53.212;5.660;2023-04-06T01:01:42;1.30;99.90
52495;DHT22;38405;53.212;5.660;2023-04-06T01:04:08;1.30;99.90
52495;DHT22;38405;53.212;5.660;2023-04-06T01:06:34;1.30;99.90
52495;DHT22;38405;53.212;5.660;2023-04-06T01:08:59;1.30;99.90
52495;DHT22;38405;53.212;5.660;2023-04-06T01:11:25;1.30;99.90
52495;DHT22;38405;53.212;5.660;2023-04-06T01:13:52;1.30;99.90
52495;DHT22;38405;53.212;5.660;2023-04-06T01:16:17;1.20;99.90
52495;DHT22;38405;53.212;5.660;2023-04-06T01:18:43;1.10;99.90
52495;DHT22;38405;53.212;5.660;2023-04-06T01:21:09;0.90;99.90
52495;DHT22;38405;53.212;5.660;2023-04-06T01:23:42;0.80;99.90
52495;DHT22;38405;53.212;5.660;2023-04-06T01:26:08;0.70;99.90
52495;DHT22;38405;53.212;5.660;2023-04-06T01:28:34;0.60;99.90
52495;DHT22;38405;53.212;5.660;2023-04-06T01:30:59;0.50;99.90
52495;DHT22;38405;53.212;5.660;2023-04-06T01:33:25;0.50;99.90
52495;DHT22;38405;53.212;5.660;2023-04-06T01:35:51;0.50;99.90
52495;DHT22;38405;53.212;5.660;2023-04-06T01:38:16;0.60;99.90
52495;DHT22;38405;53.212;5.660;2023-04-06T01:40:42;0.60;99.90
52495;DHT22;38405;53.212;5.660;2023-04-06T01:43:07;0.60;99.90
52495;DHT22;38405;53.212;5.660;2023-04-06T01:45:33;0.60;99.90
52495;DHT22;38405;53.212;5.660;2023-04-06T01:47:59;0.60;99.90
52495;DHT22;38405;53.212;5.660;2023-04-06T01:50:24;0.60;99.90
52495;DHT22;38405;53.212;5.660;2023-04-06T01:52:50;0.60;99.90
52495;DHT22;38405;53.212;5.660;2023-04-06T01:55:15;0.60;99.90
52495;DHT22;38405;53.212;5.660;2023-04-06T01:57:41;0.60;99.90
52495;DHT22;38405;53.212;5.660;2023-04-06T02:00:07;0.60;99.90
52495;DHT22;38405;53.212;5.660;2023-04-06T02:02:33;0.60;99.90
52495;DHT22;38405;53.212;5.660;2023-04-06T02:04:58;0.70;99.90
52495;DHT22;38405;53.212;5.660;2023-04-06T02:07:24;0.60;99.90
52495;DHT22;38405;53.212;5.660;2023-04-06T02:09:54;0.70;99.90
52495;DHT22;38405;53.212;5.660;2023-04-06T02:12:20;0.60;99.90
52495;DHT22;38405;53.212;5.660;2023-04-06T02:14:46;0.60;99.90
52495;DHT22;38405;53.212;5.660;2023-04-06T02:17:11;0.60;99.90
52495;DHT22;38405;53.212;5.660;2023-04-06T02:19:37;0.50;99.90
52495;DHT22;38405;53.212;5.660;2023-04-06T02:22:03;0.50;99.90
52495;DHT22;38405;53.212;5.660;2023-04-06T02:24:28;0.50;99.90
52495;DHT22;38405;53.212;5.660;2023-04-06T02:26:54;0.50;99.90
52495;DHT22;38405;53.212;5.660;2023-04-06T02:29:19;0.50;99.90
52495;DHT22;38405;53.212;5.660;2023-04-06T02:31:45;0.40;99.90
52495;DHT22;38405;53.212;5.660;2023-04-06T02:34:11;0.50;99.90
52495;DHT22;38405;53.212;5.660;2023-04-06T02:36:43;0.40;99.90
52495;DHT22;38405;53.212;5.660;2023-04-06T02:39:09;0.40;99.90
52495;DHT22;38405;53.212;5.660;2023-04-06T02:41:35;0.40;99.90
52495;DHT22;38405;53.212;5.660;2023-04-06T02:44:01;0.40;99.90
52495;DHT22;38405;53.212;5.660;2023-04-06T02:46:26;0.30;99.90
52495;DHT22;38405;53.212;5.660;2023-04-06T02:48:52;0.30;99.90
52495;DHT22;38405;53.212;5.660;2023-04-06T02:51:18;0.30;99.90
52495;DHT22;38405;53.212;5.660;2023-04-06T02:53:43;0.30;99.90
52495;DHT22;38405;53.212;5.660;2023-04-06T02:56:09;0.20;99.90
52495;DHT22;38405;53.212;5.660;2023-04-06T02:58:35;0.20;99.90
52495;DHT22;38405;53.212;5.660;2023-04-06T03:01:00;0.20;99.90
52495;DHT22;38405;53.212;5.660;2023-04-06T03:03:26;0.20;99.90
52495;DHT22;38405;53.212;5.660;2023-04-06T03:05:51;0.20;99.90
52495;DHT22;38405;53.212;5.660;2023-04-06T03:08:19;0.10;99.90
52495;DHT22;38405;53.212;5.660;2023-04-06T03:10:45;0.10;99.90
52495;DHT22;38405;53.212;5.660;2023-04-06T03:13:10;0.00;99.90
52495;DHT22;38405;53.212;5.660;2023-04-06T03:15:36;0.00;99.90
52495;DHT22;38405;53.212;5.660;2023-04-06T03:18:02;-0.10;99.90
52495;DHT22;38405;53.212;5.660;2023-04-06T03:20:27;-0.20;99.90
52495;DHT22;38405;53.212;5.660;2023-04-06T03:22:53;-0.20;99.90
52495;DHT22;38405;53.212;5.660;2023-04-06T03:25:18;-0.20;99.90
52495;DHT22;38405;53.212;5.660;2023-04-06T03:27:44;-0.20;99.90
52495;DHT22;38405;53.212;5.660;2023-04-06T03:30:10;-0.10;99.90
52495;DHT22;38405;53.212;5.660;2023-04-06T03:32:35;0.00;99.90
52495;DHT22;38405;53.212;5.660;2023-04-06T03:35:01;0.00;99.90
52495;DHT22;38405;53.212;5.660;2023-04-06T03:37:27;0.10;99.90
52495;DHT22;38405;53.212;5.660;2023-04-06T03:39:52;0.10;99.90
52495;DHT22;38405;53.212;5.660;2023-04-06T03:42:18;0.20;99.90
52495;DHT22;38405;53.212;5.660;2023-04-06T03:44:43;0.20;99.90
52495;DHT22;38405;53.212;5.660;2023-04-06T03:47:09;0.20;99.90
52495;DHT22;38405;53.212;5.660;2023-04-06T03:49:35;0.30;99.90
52495;DHT22;38405;53.212;5.660;2023-04-06T03:52:01;0.30;99.90
52495;DHT22;38405;53.212;5.660;2023-04-06T03:54:27;0.40;99.90
52495;DHT22;38405;53.212;5.660;2023-04-06T03:56:52;0.40;99.90
52495;DHT22;38405;53.212;5.660;2023-04-06T03:59:18;0.40;99.90
52495;DHT22;38405;53.212;5.660;2023-04-06T04:01:43;0.40;99.90
52495;DHT22;38405;53.212;5.660;2023-04-06T04:04:10;0.50;99.90
52495;DHT22;38405;53.212;5.660;2023-04-06T04:06:35;0.50;99.90
52495;DHT22;38405;53.212;5.660;2023-04-06T04:09:02;0.50;99.90
52495;DHT22;38405;53.212;5.660;2023-04-06T04:11:27;0.60;99.90
52495;DHT22;38405;53.212;5.660;2023-04-06T04:13:53;0.60;99.90
52495;DHT22;38405;53.212;5.660;2023-04-06T04:16:19;0.60;99.90
52495;DHT22;38405;53.212;5.660;2023-04-06T04:18:44;0.60;99.90
52495;DHT22;38405;53.212;5.660;2023-04-06T04:21:12;0.60;99.90
52495;DHT22;38405;53.212;5.660;2023-04-06T04:23:38;0.60;99.90
52495;DHT22;38405;53.212;5.660;2023-04-06T04:26:03;0.60;99.90
52495;DHT22;38405;53.212;5.660;2023-04-06T04:28:29;0.70;99.90
52495;DHT22;38405;53.212;5.660;2023-04-06T04:30:55;0.70;99.90
52495;DHT22;38405;53.212;5.660;2023-04-06T04:33:20;0.70;99.90
52495;DHT22;38405;53.212;5.660;2023-04-06T04:35:46;0.70;99.90
52495;DHT22;38405;53.212;5.660;2023-04-06T04:38:12;0.70;99.90
52495;DHT22;38405;53.212;5.660;2023-04-06T04:40:37;0.70;99.90
52495;DHT22;38405;53.212;5.660;2023-04-06T04:43:03;0.70;99.90
52495;DHT22;38405;53.212;5.660;2023-04-06T04:45:28;0.70;99.90
52495;DHT22;38405;53.212;5.660;2023-04-06T04:47:54;0.90;99.90
52495;DHT22;38405;53.212;5.660;2023-04-06T04:50:20;0.70;99.90
52495;DHT22;38405;53.212;5.660;2023-04-06T04:52:45;0.70;99.90
52495;DHT22;38405;53.212;5.660;2023-04-06T04:55:11;0.70;99.90
52495;DHT22;38405;53.212;5.660;2023-04-06T04:57:37;0.70;99.90
52495;DHT22;38405;53.212;5.660;2023-04-06T05:00:02;0.80;99.90
52495;DHT22;38405;53.212;5.660;2023-04-06T05:02:28;0.80;99.90
52495;DHT22;38405;53.212;5.660;2023-04-06T05:04:54;0.80;99.90
52495;DHT22;38405;53.212;5.660;2023-04-06T05:07:20;0.80;99.90
52495;DHT22;38405;53.212;5.660;2023-04-06T05:09:46;0.80;99.90
52495;DHT22;38405;53.212;5.660;2023-04-06T05:12:12;0.90;99.90
52495;DHT22;38405;53.212;5.660;2023-04-06T05:14:37;0.90;99.90
52495;DHT22;38405;53.212;5.660;2023-04-06T05:17:03;0.90;99.90
52495;DHT22;38405;53.212;5.660;2023-04-06T05:19:29;0.90;99.90
52495;DHT22;38405;53.212;5.660;2023-04-06T05:21:55;0.90;99.90
52495;DHT22;38405;53.212;5.660;2023-04-06T05:24:21;1.00;99.90
52495;DHT22;38405;53.212;5.660;2023-04-06T05:26:48;1.00;99.90
52495;DHT22;38405;53.212;5.660;2023-04-06T05:29:13;1.10;99.90
52495;DHT22;38405;53.212;5.660;2023-04-06T05:31:40;1.10;99.90
52495;DHT22;38405;53.212;5.660;2023-04-06T05:34:05;1.10;99.90
52495;DHT22;38405;53.212;5.660;2023-04-06T05:36:31;1.20;99.90
52495;DHT22;38405;53.212;5.660;2023-04-06T05:38:57;1.30;99.90
52495;DHT22;38405;53.212;5.660;2023-04-06T05:41:24;1.30;99.90
52495;DHT22;38405;53.212;5.660;2023-04-06T05:43:50;1.40;99.90
52495;DHT22;38405;53.212;5.660;2023-04-06T05:46:15;1.50;99.90
52495;DHT22;38405;53.212;5.660;2023-04-06T05:48:41;1.60;99.90
52495;DHT22;38405;53.212;5.660;2023-04-06T05:51:06;1.70;99.90
52495;DHT22;38405;53.212;5.660;2023-04-06T05:53:32;1.80;99.90
52495;DHT22;38405;53.212;5.660;2023-04-06T05:56:02;1.80;99.90
52495;DHT22;38405;53.212;5.660;2023-04-06T05:58:28;1.90;99.90
52495;DHT22;38405;53.212;5.660;2023-04-06T06:01:00;2.00;99.90
52495;DHT22;38405;53.212;5.660;2023-04-06T06:03:26;2.10;99.90
52495;DHT22;38405;53.212;5.660;2023-04-06T06:05:52;2.20;99.90
52495;DHT22;38405;53.212;5.660;2023-04-06T06:08:18;2.40;99.90
52495;DHT22;38405;53.212;5.660;2023-04-06T06:10:43;2.60;99.90
52495;DHT22;38405;53.212;5.660;2023-04-06T06:13:09;2.70;99.90
52495;DHT22;38405;53.212;5.660;2023-04-06T06:15:35;2.70;99.90
52495;DHT22;38405;53.212;5.660;2023-04-06T06:18:01;2.80;99.90
52495;DHT22;38405;53.212;5.660;2023-04-06T06:20:27;2.90;99.90
52495;DHT22;38405;53.212;5.660;2023-04-06T06:22:53;3.00;99.90
52495;DHT22;38405;53.212;5.660;2023-04-06T06:25:18;3.10;99.90
52495;DHT22;38405;53.212;5.660;2023-04-06T06:27:44;3.20;99.90
52495;DHT22;38405;53.212;5.660;2023-04-06T06:30:10;3.10;99.90
52495;DHT22;38405;53.212;5.660;2023-04-06T06:32:36;3.10;99.90
52495;DHT22;38405;53.212;5.660;2023-04-06T06:35:01;3.40;99.90
52495;DHT22;38405;53.212;5.660;2023-04-06T06:37:28;3.30;99.90
52495;DHT22;38405;53.212;5.660;2023-04-06T06:39:53;3.40;99.90
52495;DHT22;38405;53.212;5.660;2023-04-06T06:42:19;3.50;99.90
52495;DHT22;38405;53.212;5.660;2023-04-06T06:44:44;3.80;99.90
52495;DHT22;38405;53.212;5.660;2023-04-06T06:47:10;4.00;99.90
52495;DHT22;38405;53.212;5.660;2023-04-06T06:49:36;4.30;99.90
52495;DHT22;38405;53.212;5.660;2023-04-06T06:52:01;4.60;99.90
52495;DHT22;38405;53.212;5.660;2023-04-06T06:54:27;4.70;99.90
52495;DHT22;38405;53.212;5.660;2023-04-06T06:56:53;4.90;99.90
52495;DHT22;38405;53.212;5.660;2023-04-06T06:59:19;4.90;99.90
52495;DHT22;38405;53.212;5.660;2023-04-06T07:01:46;4.90;99.90
52495;DHT22;38405;53.212;5.660;2023-04-06T07:04:12;5.70;99.90
52495;DHT22;38405;53.212;5.660;2023-04-06T07:06:37;5.20;99.90
52495;DHT22;38405;53.212;5.660;2023-04-06T07:09:03;5.20;99.90
52495;DHT22;38405;53.212;5.660;2023-04-06T07:11:29;6.30;99.90
52495;DHT22;38405;53.212;5.660;2023-04-06T07:13:55;6.30;99.90
52495;DHT22;38405;53.212;5.660;2023-04-06T07:16:21;5.60;99.90
52495;DHT22;38405;53.212;5.660;2023-04-06T07:18:47;5.70;99.90
52495;DHT22;38405;53.212;5.660;2023-04-06T07:21:12;5.80;99.90
52495;DHT22;38405;53.212;5.660;2023-04-06T07:23:38;6.00;99.90
52495;DHT22;38405;53.212;5.660;2023-04-06T07:26:04;6.10;99.90
52495;DHT22;38405;53.212;5.660;2023-04-06T07:28:30;6.30;99.90
52495;DHT22;38405;53.212;5.660;2023-04-06T07:30:55;6.70;99.90
52495;DHT22;38405;53.212;5.660;2023-04-06T07:33:21;7.30;99.90
52495;DHT22;38405;53.212;5.660;2023-04-06T07:35:47;7.50;99.90
52495;DHT22;38405;53.212;5.660;2023-04-06T07:38:13;8.30;99.90
52495;DHT22;38405;53.212;5.660;2023-04-06T07:40:39;7.50;99.90
52495;DHT22;38405;53.212;5.660;2023-04-06T07:43:04;8.20;99.90
52495;DHT22;38405;53.212;5.660;2023-04-06T07:45:30;8.30;99.90
52495;DHT22;38405;53.212;5.660;2023-04-06T07:47:56;8.60;99.90
52495;DHT22;38405;53.212;5.660;2023-04-06T07:50:22;10.00;99.90
52495;DHT22;38405;53.212;5.660;2023-04-06T07:52:48;10.60;99.90
52495;DHT22;38405;53.212;5.660;2023-04-06T07:55:14;11.00;99.90
52495;DHT22;38405;53.212;5.660;2023-04-06T07:57:39;11.20;99.90
52495;DHT22;38405;53.212;5.660;2023-04-06T08:00:05;11.40;99.90
52495;DHT22;38405;53.212;5.660;2023-04-06T08:02:31;11.50;99.90
52495;DHT22;38405;53.212;5.660;2023-04-06T08:04:57;11.50;99.90
52495;DHT22;38405;53.212;5.660;2023-04-06T08:07:23;11.40;99.90
52495;DHT22;38405;53.212;5.660;2023-04-06T08:09:48;11.30;99.90
52495;DHT22;38405;53.212;5.660;2023-04-06T08:12:14;11.30;99.90
52495;DHT22;38405;53.212;5.660;2023-04-06T08:14:40;11.20;99.90
52495;DHT22;38405;53.212;5.660;2023-04-06T08:17:05;11.00;99.90
52495;DHT22;38405;53.212;5.660;2023-04-06T08:19:31;10.70;99.90
52495;DHT22;38405;53.212;5.660;2023-04-06T08:21:56;10.60;99.90
52495;DHT22;38405;53.212;5.660;2023-04-06T08:24:22;10.60;99.90
52495;DHT22;38405;53.212;5.660;2023-04-06T08:26:48;10.40;99.90
52495;DHT22;38405;53.212;5.660;2023-04-06T08:29:14;10.10;99.90
52495;DHT22;38405;53.212;5.660;2023-04-06T08:31:39;9.80;99.90
52495;DHT22;38405;53.212;5.660;2023-04-06T08:34:05;10.00;99.90
52495;DHT22;38405;53.212;5.660;2023-04-06T08:36:32;9.50;99.90
52495;DHT22;38405;53.212;5.660;2023-04-06T08:38:59;9.50;99.90
52495;DHT22;38405;53.212;5.660;2023-04-06T08:41:25;10.30;99.90
52495;DHT22;38405;53.212;5.660;2023-04-06T08:43:57;10.00;99.90
52495;DHT22;38405;53.212;5.660;2023-04-06T08:46:24;9.80;99.90
52495;DHT22;38405;53.212;5.660;2023-04-06T08:49:01;10.50;99.90
52495;DHT22;38405;53.212;5.660;2023-04-06T08:51:28;10.00;99.90
52495;DHT22;38405;53.212;5.660;2023-04-06T08:53:55;10.00;99.90
52495;DHT22;38405;53.212;5.660;2023-04-06T08:56:24;10.10;99.90
52495;DHT22;38405;53.212;5.660;2023-04-06T08:58:52;10.10;99.90
52495;DHT22;38405;53.212;5.660;2023-04-06T09:01:21;10.20;99.90
52495;DHT22;38405;53.212;5.660;2023-04-06T09:03:49;10.90;99.90
52495;DHT22;38405;53.212;5.660;2023-04-06T09:06:15;10.80;99.90
52495;DHT22;38405;53.212;5.660;2023-04-06T09:08:44;10.40;99.90
52495;DHT22;38405;53.212;5.660;2023-04-06T09:11:10;10.50;99.90
52495;DHT22;38405;53.212;5.660;2023-04-06T09:13:47;11.30;99.90
52495;DHT22;38405;53.212;5.660;2023-04-06T09:16:12;10.60;99.90
52495;DHT22;38405;53.212;5.660;2023-04-06T09:18:38;10.80;99.90
52495;DHT22;38405;53.212;5.660;2023-04-06T09:21:06;10.90;99.90
52495;DHT22;38405;53.212;5.660;2023-04-06T09:23:33;10.80;99.90
52495;DHT22;38405;53.212;5.660;2023-04-06T09:26:16;11.30;99.90
52495;DHT22;38405;53.212;5.660;2023-04-06T09:28:54;11.00;99.90
52495;DHT22;38405;53.212;5.660;2023-04-06T09:31:25;11.40;99.90
52495;DHT22;38405;53.212;5.660;2023-04-06T09:33:51;11.20;99.90
52495;DHT22;38405;53.212;5.660;2023-04-06T09:36:28;11.00;99.90
52495;DHT22;38405;53.212;5.660;2023-04-06T09:39:02;10.90;99.90
52495;DHT22;38405;53.212;5.660;2023-04-06T09:41:33;10.90;99.90
52495;DHT22;38405;53.212;5.660;2023-04-06T09:44:06;11.10;99.90
52495;DHT22;38405;53.212;5.660;2023-04-06T09:46:37;11.10;99.90
52495;DHT22;38405;53.212;5.660;2023-04-06T09:49:04;11.00;99.90
52495;DHT22;38405;53.212;5.660;2023-04-06T09:51:31;11.00;99.90
52495;DHT22;38405;53.212;5.660;2023-04-06T09:53:59;11.00;99.90
52495;DHT22;38405;53.212;5.660;2023-04-06T09:56:30;11.00;99.90
52495;DHT22;38405;53.212;5.660;2023-04-06T09:59:02;11.10;99.90
52495;DHT22;38405;53.212;5.660;2023-04-06T10:01:30;11.10;99.90
52495;DHT22;38405;53.212;5.660;2023-04-06T10:06:41;11.20;99.90
52495;DHT22;38405;53.212;5.660;2023-04-06T10:09:07;11.40;99.90
52495;DHT22;38405;53.212;5.660;2023-04-06T10:11:34;11.40;99.90
52495;DHT22;38405;53.212;5.660;2023-04-06T10:14:00;11.70;99.90
52495;DHT22;38405;53.212;5.660;2023-04-06T10:16:26;11.70;99.90
52495;DHT22;38405;53.212;5.660;2023-04-06T10:19:02;11.90;99.90
52495;DHT22;38405;53.212;5.660;2023-04-06T10:21:31;12.00;99.90
52495;DHT22;38405;53.212;5.660;2023-04-06T10:24:09;11.90;99.90
52495;DHT22;38405;53.212;5.660;2023-04-06T10:26:36;11.80;99.90
52495;DHT22;38405;53.212;5.660;2023-04-06T10:29:05;11.60;99.90
52495;DHT22;38405;53.212;5.660;2023-04-06T10:31:31;11.70;99.90
52495;DHT22;38405;53.212;5.660;2023-04-06T10:34:01;11.40;99.90
52495;DHT22;38405;53.212;5.660;2023-04-06T10:36:31;11.50;99.90
52495;DHT22;38405;53.212;5.660;2023-04-06T10:38:59;11.30;99.90
52495;DHT22;38405;53.212;5.660;2023-04-06T10:41:50;11.20;99.90
52495;DHT22;38405;53.212;5.660;2023-04-06T10:44:23;11.50;99.90
52495;DHT22;38405;53.212;5.660;2023-04-06T10:46:56;11.70;99.90
52495;DHT22;38405;53.212;5.660;2023-04-06T10:49:22;11.90;99.90
52495;DHT22;38405;53.212;5.660;2023-04-06T10:51:56;12.00;99.90
52495;DHT22;38405;53.212;5.660;2023-04-06T10:54:24;12.20;99.90
52495;DHT22;38405;53.212;5.660;2023-04-06T10:56:50;12.30;99.90
52495;DHT22;38405;53.212;5.660;2023-04-06T10:59:22;12.40;99.90
52495;DHT22;38405;53.212;5.660;2023-04-06T11:01:50;12.50;99.90
52495;DHT22;38405;53.212;5.660;2023-04-06T11:04:20;12.40;99.90
52495;DHT22;38405;53.212;5.660;2023-04-06T11:06:47;12.40;99.90
52495;DHT22;38405;53.212;5.660;2023-04-06T11:09:23;12.50;99.90
52495;DHT22;38405;53.212;5.660;2023-04-06T11:11:49;12.30;99.90
52495;DHT22;38405;53.212;5.660;2023-04-06T11:14:15;12.30;99.90
52495;DHT22;38405;53.212;5.660;2023-04-06T11:16:40;12.40;99.90
52495;DHT22;38405;53.212;5.660;2023-04-06T11:19:07;12.40;99.90
52495;DHT22;38405;53.212;5.660;2023-04-06T11:24:09;12.20;99.90
52495;DHT22;38405;53.212;5.660;2023-04-06T11:26:39;12.40;99.90
52495;DHT22;38405;53.212;5.660;2023-04-06T11:29:05;12.20;99.90
52495;DHT22;38405;53.212;5.660;2023-04-06T11:31:31;12.30;99.90
52495;DHT22;38405;53.212;5.660;2023-04-06T11:33:57;12.30;99.90
52495;DHT22;38405;53.212;5.660;2023-04-06T11:36:23;12.40;99.90
52495;DHT22;38405;53.212;5.660;2023-04-06T11:38:49;12.40;99.90
52495;DHT22;38405;53.212;5.660;2023-04-06T11:41:15;12.40;99.90
52495;DHT22;38405;53.212;5.660;2023-04-06T11:43:47;12.40;99.90
52495;DHT22;38405;53.212;5.660;2023-04-06T11:46:17;12.30;99.90
52495;DHT22;38405;53.212;5.660;2023-04-06T11:48:44;12.30;99.90
52495;DHT22;38405;53.212;5.660;2023-04-06T11:51:10;12.30;99.90
52495;DHT22;38405;53.212;5.660;2023-04-06T11:53:44;12.30;99.90
52495;DHT22;38405;53.212;5.660;2023-04-06T11:56:10;12.40;99.90
52495;DHT22;38405;53.212;5.660;2023-04-06T11:58:36;12.50;99.90
52495;DHT22;38405;53.212;5.660;2023-04-06T12:01:05;12.60;99.90
52495;DHT22;38405;53.212;5.660;2023-04-06T12:03:31;12.50;99.90
52495;DHT22;38405;53.212;5.660;2023-04-06T12:05:56;12.50;99.90
52495;DHT22;38405;53.212;5.660;2023-04-06T12:08:22;12.40;99.90
52495;DHT22;38405;53.212;5.660;2023-04-06T12:10:50;12.20;99.90
52495;DHT22;38405;53.212;5.660;2023-04-06T12:13:16;11.90;99.90
52495;DHT22;38405;53.212;5.660;2023-04-06T12:15:42;11.70;99.90
52495;DHT22;38405;53.212;5.660;2023-04-06T12:18:07;11.60;99.90
52495;DHT22;38405;53.212;5.660;2023-04-06T12:20:33;11.30;99.90
52495;DHT22;38405;53.212;5.660;2023-04-06T12:22:59;11.10;99.90
52495;DHT22;38405;53.212;5.660;2023-04-06T12:25:24;11.00;99.90
52495;DHT22;38405;53.212;5.660;2023-04-06T12:27:50;10.90;99.90
52495;DHT22;38405;53.212;5.660;2023-04-06T12:30:16;11.00;99.90
52495;DHT22;38405;53.212;5.660;2023-04-06T12:32:41;11.00;99.90
52495;DHT22;38405;53.212;5.660;2023-04-06T12:35:08;11.00;99.90
52495;DHT22;38405;53.212;5.660;2023-04-06T12:37:34;11.10;99.90
52495;DHT22;38405;53.212;5.660;2023-04-06T12:40:00;11.10;99.90
52495;DHT22;38405;53.212;5.660;2023-04-06T12:42:25;11.10;99.90
52495;DHT22;38405;53.212;5.660;2023-04-06T12:44:51;11.10;99.90
52495;DHT22;38405;53.212;5.660;2023-04-06T12:47:17;11.10;99.90
52495;DHT22;38405;53.212;5.660;2023-04-06T12:49:43;10.90;99.90
52495;DHT22;38405;53.212;5.660;2023-04-06T12:52:10;10.70;99.90
52495;DHT22;38405;53.212;5.660;2023-04-06T12:54:35;10.60;99.90
52495;DHT22;38405;53.212;5.660;2023-04-06T12:57:01;10.50;99.90
52495;DHT22;38405;53.212;5.660;2023-04-06T12:59:27;10.30;99.90
52495;DHT22;38405;53.212;5.660;2023-04-06T13:01:53;10.20;99.90
52495;DHT22;38405;53.212;5.660;2023-04-06T13:04:19;10.20;99.90
52495;DHT22;38405;53.212;5.660;2023-04-06T13:06:44;10.10;99.90
52495;DHT22;38405;53.212;5.660;2023-04-06T13:09:10;10.10;99.90
52495;DHT22;38405;53.212;5.660;2023-04-06T13:11:36;10.50;99.90
52495;DHT22;38405;53.212;5.660;2023-04-06T13:14:01;9.90;99.90
52495;DHT22;38405;53.212;5.660;2023-04-06T13:16:27;9.80;99.90
52495;DHT22;38405;53.212;5.660;2023-04-06T13:18:53;9.80;99.90
52495;DHT22;38405;53.212;5.660;2023-04-06T13:21:18;9.70;99.90
52495;DHT22;38405;53.212;5.660;2023-04-06T13:23:46;9.80;99.90
52495;DHT22;38405;53.212;5.660;2023-04-06T13:26:11;9.80;99.90
52495;DHT22;38405;53.212;5.660;2023-04-06T13:28:38;9.70;99.90
52495;DHT22;38405;53.212;5.660;2023-04-06T13:31:05;9.60;99.90
52495;DHT22;38405;53.212;5.660;2023-04-06T13:33:30;9.50;99.90
52495;DHT22;38405;53.212;5.660;2023-04-06T13:35:57;9.50;99.90
52495;DHT22;38405;53.212;5.660;2023-04-06T13:38:22;9.40;99.90
52495;DHT22;38405;53.212;5.660;2023-04-06T13:40:51;9.20;99.90
52495;DHT22;38405;53.212;5.660;2023-04-06T13:43:16;9.20;99.90
52495;DHT22;38405;53.212;5.660;2023-04-06T13:45:49;9.20;99.90
52495;DHT22;38405;53.212;5.660;2023-04-06T13:48:16;9.10;99.90
52495;DHT22;38405;53.212;5.660;2023-04-06T13:50:41;9.00;99.90
52495;DHT22;38405;53.212;5.660;2023-04-06T13:53:07;9.00;99.90
52495;DHT22;38405;53.212;5.660;2023-04-06T13:55:33;8.90;99.90
52495;DHT22;38405;53.212;5.660;2023-04-06T13:57:58;8.90;99.90
52495;DHT22;38405;53.212;5.660;2023-04-06T14:00:24;8.80;99.90
52495;DHT22;38405;53.212;5.660;2023-04-06T14:02:49;8.70;99.90
52495;DHT22;38405;53.212;5.660;2023-04-06T14:05:16;8.70;99.90
52495;DHT22;38405;53.212;5.660;2023-04-06T14:07:42;8.60;99.90
52495;DHT22;38405;53.212;5.660;2023-04-06T14:10:08;8.50;99.90
52495;DHT22;38405;53.212;5.660;2023-04-06T14:12:40;8.50;99.90
52495;DHT22;38405;53.212;5.660;2023-04-06T14:15:07;8.40;99.90
52495;DHT22;38405;53.212;5.660;2023-04-06T14:17:33;8.30;99.90
52495;DHT22;38405;53.212;5.660;2023-04-06T14:19:59;8.40;99.90
52495;DHT22;38405;53.212;5.660;2023-04-06T14:22:25;8.30;99.90
52495;DHT22;38405;53.212;5.660;2023-04-06T14:24:51;8.10;99.90
52495;DHT22;38405;53.212;5.660;2023-04-06T14:27:16;8.20;99.90
52495;DHT22;38405;53.212;5.660;2023-04-06T14:29:42;8.20;99.90
52495;DHT22;38405;53.212;5.660;2023-04-06T14:32:08;8.20;99.90
52495;DHT22;38405;53.212;5.660;2023-04-06T14:34:37;8.20;99.90
52495;DHT22;38405;53.212;5.660;2023-04-06T14:37:02;8.20;99.90
52495;DHT22;38405;53.212;5.660;2023-04-06T14:39:28;8.20;99.90
52495;DHT22;38405;53.212;5.660;2023-04-06T14:41:53;8.20;99.90
52495;DHT22;38405;53.212;5.660;2023-04-06T14:44:20;8.10;99.90
52495;DHT22;38405;53.212;5.660;2023-04-06T14:46:46;8.10;99.90
52495;DHT22;38405;53.212;5.660;2023-04-06T14:49:11;8.50;99.90
52495;DHT22;38405;53.212;5.660;2023-04-06T14:51:37;8.20;99.90
52495;DHT22;38405;53.212;5.660;2023-04-06T14:54:04;8.10;99.90
52495;DHT22;38405;53.212;5.660;2023-04-06T14:56:30;8.10;99.90
52495;DHT22;38405;53.212;5.660;2023-04-06T14:58:59;8.00;99.90
52495;DHT22;38405;53.212;5.660;2023-04-06T15:01:27;8.00;99.90
52495;DHT22;38405;53.212;5.660;2023-04-06T15:03:53;8.10;99.90
52495;DHT22;38405;53.212;5.660;2023-04-06T15:06:18;8.00;99.90
52495;DHT22;38405;53.212;5.660;2023-04-06T15:08:46;8.10;99.90
52495;DHT22;38405;53.212;5.660;2023-04-06T15:11:12;8.10;99.90
52495;DHT22;38405;53.212;5.660;2023-04-06T15:13:39;8.00;99.90
52495;DHT22;38405;53.212;5.660;2023-04-06T15:16:05;7.90;99.90
52495;DHT22;38405;53.212;5.660;2023-04-06T15:18:32;7.90;99.90
52495;DHT22;38405;53.212;5.660;2023-04-06T15:20:58;7.90;99.90
52495;DHT22;38405;53.212;5.660;2023-04-06T15:23:24;7.80;99.90
52495;DHT22;38405;53.212;5.660;2023-04-06T15:25:50;7.90;99.90
52495;DHT22;38405;53.212;5.660;2023-04-06T15:28:16;7.80;99.90
52495;DHT22;38405;53.212;5.660;2023-04-06T15:30:41;7.80;99.90
52495;DHT22;38405;53.212;5.660;2023-04-06T15:33:08;7.80;99.90
52495;DHT22;38405;53.212;5.660;2023-04-06T15:35:34;7.80;99.90
52495;DHT22;38405;53.212;5.660;2023-04-06T15:38:04;7.80;99.90
52495;DHT22;38405;53.212;5.660;2023-04-06T15:40:30;7.80;99.90